Terminal Aerodrome Forecast
Issued by NWS

Home | Current Version | Previous Version | Text Only | Print | Product List | Glossary On
Versions: 1 2 3 4 5 6 7 8 9 10 11 12 13 14 15
000
FTUS44 KCRP 272300
TAFLRD
TAF
KLRD 272337Z 2800/2824 01010KT 5SM -DZ BR SCT007 OVC012
      TEMPO 2800/2804 3SM -RA BR OVC007
     FM280400 02010KT 3SM -RA BR OVC008
     FM280800 36010KT 2SM -RA BR OVC005
     FM281600 35008KT 4SM -DZ BR OVC008
     FM282000 02009KT P6SM OVC015=

USA.gov is the U.S. government's official web portal to all federal, state and local government web resources and services.